sensor_id;sensor_type;location;lat;lon;timestamp;pressure;altitude;pressure_sealevel;temperature;humidity
70521;BME280;58442;52.716;23.560;2023-05-12T00:01:34;102282.29;;;7.30;55.32
70521;BME280;58442;52.716;23.560;2023-05-12T00:03:37;102284.49;;;7.28;55.60
70521;BME280;58442;52.716;23.560;2023-05-12T00:05:39;102289.10;;;7.28;55.60
70521;BME280;58442;52.716;23.560;2023-05-12T00:07:41;102290.95;;;7.27;55.62
70521;BME280;58442;52.716;23.560;2023-05-12T00:09:49;102282.34;;;7.25;55.65
70521;BME280;58442;52.716;23.560;2023-05-12T00:11:51;102282.63;;;7.24;55.89
70521;BME280;58442;52.716;23.560;2023-05-12T00:13:54;102283.43;;;7.24;55.83
70521;BME280;58442;52.716;23.560;2023-05-12T00:15:56;102293.96;;;7.26;55.82
70521;BME280;58442;52.716;23.560;2023-05-12T00:18:04;102294.25;;;7.24;55.82
70521;BME280;58442;52.716;23.560;2023-05-12T00:20:06;102298.34;;;7.22;55.92
70521;BME280;58442;52.716;23.560;2023-05-12T00:22:12;102299.45;;;7.21;56.02
70521;BME280;58442;52.716;23.560;2023-05-12T00:24:13;102302.41;;;7.19;56.09
70521;BME280;58442;52.716;23.560;2023-05-12T00:26:19;102297.29;;;7.18;56.01
70521;BME280;58442;52.716;23.560;2023-05-12T00:28:21;102302.70;;;7.18;56.17
70521;BME280;58442;52.716;23.560;2023-05-12T00:30:23;102298.39;;;7.17;56.15
70521;BME280;58442;52.716;23.560;2023-05-12T00:32:25;102302.48;;;7.14;56.19
70521;BME280;58442;52.716;23.560;2023-05-12T00:34:34;102299.23;;;7.12;56.28
70521;BME280;58442;52.716;23.560;2023-05-12T00:36:36;102303.33;;;7.09;56.36
70521;BME280;58442;52.716;23.560;2023-05-12T00:38:38;102300.91;;;7.08;56.42
70521;BME280;58442;52.716;23.560;2023-05-12T00:40:41;102300.91;;;7.08;56.40
70521;BME280;58442;52.716;23.560;2023-05-12T00:42:49;102305.52;;;7.07;56.41
70521;BME280;58442;52.716;23.560;2023-05-12T00:44:50;102311.19;;;7.06;56.48
70521;BME280;58442;52.716;23.560;2023-05-12T00:46:52;102311.98;;;7.06;56.49
70521;BME280;58442;52.716;23.560;2023-05-12T00:48:56;102313.07;;;7.05;56.48
70521;BME280;58442;52.716;23.560;2023-05-12T00:51:04;102308.77;;;7.04;56.49
70521;BME280;58442;52.716;23.560;2023-05-12T00:53:06;102315.57;;;7.02;56.62
70521;BME280;58442;52.716;23.560;2023-05-12T00:55:09;102315.02;;;7.00;56.63
70521;BME280;58442;52.716;23.560;2023-05-12T00:57:11;102311.29;;;6.96;56.74
70521;BME280;58442;52.716;23.560;2023-05-12T00:59:19;102312.68;;;6.93;56.77
70521;BME280;58442;52.716;23.560;2023-05-12T01:01:21;102320.52;;;6.90;56.92
70521;BME280;58442;52.716;23.560;2023-05-12T01:03:22;102316.50;;;6.87;57.01
70521;BME280;58442;52.716;23.560;2023-05-12T01:05:29;102313.26;;;6.85;57.07
70521;BME280;58442;52.716;23.560;2023-05-12T01:07:35;102313.84;;;6.82;57.14
70521;BME280;58442;52.716;23.560;2023-05-12T01:09:36;102310.33;;;6.81;57.27
70521;BME280;58442;52.716;23.560;2023-05-12T01:11:38;102316.03;;;6.80;57.35
70521;BME280;58442;52.716;23.560;2023-05-12T01:13:40;102318.18;;;6.78;57.33
70521;BME280;58442;52.716;23.560;2023-05-12T01:15:49;102317.95;;;6.74;57.47
70521;BME280;58442;52.716;23.560;2023-05-12T01:17:57;102312.01;;;6.72;57.55
70521;BME280;58442;52.716;23.560;2023-05-12T01:20:02;102320.40;;;6.71;57.58
70521;BME280;58442;52.716;23.560;2023-05-12T01:22:07;102319.88;;;6.69;57.67
70521;BME280;58442;52.716;23.560;2023-05-12T01:24:11;102320.46;;;6.66;57.65
70521;BME280;58442;52.716;23.560;2023-05-12T01:26:15;102324.51;;;6.63;57.70
70521;BME280;58442;52.716;23.560;2023-05-12T01:28:17;102320.20;;;6.62;57.77
70521;BME280;58442;52.716;23.560;2023-05-12T01:30:20;102323.19;;;6.61;57.79
70521;BME280;58442;52.716;23.560;2023-05-12T01:32:26;102326.98;;;6.60;57.81
70521;BME280;58442;52.716;23.560;2023-05-12T01:34:28;102329.94;;;6.58;58.02
70521;BME280;58442;52.716;23.560;2023-05-12T01:36:29;102323.73;;;6.57;58.05
70521;BME280;58442;52.716;23.560;2023-05-12T01:38:32;102325.63;;;6.57;58.07
70521;BME280;58442;52.716;23.560;2023-05-12T01:40:36;102335.12;;;6.54;58.09
70521;BME280;58442;52.716;23.560;2023-05-12T01:42:40;102332.70;;;6.53;58.17
70521;BME280;58442;52.716;23.560;2023-05-12T01:44:41;102331.35;;;6.50;58.19
70521;BME280;58442;52.716;23.560;2023-05-12T01:46:43;102330.83;;;6.48;58.22
70521;BME280;58442;52.716;23.560;2023-05-12T01:48:51;102342.72;;;6.47;58.23
70521;BME280;58442;52.716;23.560;2023-05-12T01:50:53;102332.21;;;6.46;58.34
70521;BME280;58442;52.716;23.560;2023-05-12T01:52:54;102336.80;;;6.45;58.32
70521;BME280;58442;52.716;23.560;2023-05-12T01:54:56;102340.57;;;6.44;58.19
70521;BME280;58442;52.716;23.560;2023-05-12T01:57:05;102337.86;;;6.44;58.18
70521;BME280;58442;52.716;23.560;2023-05-12T01:59:07;102333.84;;;6.42;58.26
70521;BME280;58442;52.716;23.560;2023-05-12T02:01:09;102337.93;;;6.39;58.36
70521;BME280;58442;52.716;23.560;2023-05-12T02:03:11;102340.88;;;6.38;58.39
70521;BME280;58442;52.716;23.560;2023-05-12T02:05:20;102340.64;;;6.34;58.47
70521;BME280;58442;52.716;23.560;2023-05-12T02:07:22;102332.02;;;6.32;58.63
70521;BME280;58442;52.716;23.560;2023-05-12T02:09:24;102337.16;;;6.28;58.73
70521;BME280;58442;52.716;23.560;2023-05-12T02:11:25;102343.65;;;6.27;58.76
70521;BME280;58442;52.716;23.560;2023-05-12T02:13:36;102342.32;;;6.25;58.89
70521;BME280;58442;52.716;23.560;2023-05-12T02:15:37;102344.46;;;6.23;59.06
70521;BME280;58442;52.716;23.560;2023-05-12T02:17:39;102337.46;;;6.22;59.11
70521;BME280;58442;52.716;23.560;2023-05-12T02:19:40;102345.56;;;6.22;59.17
70521;BME280;58442;52.716;23.560;2023-05-12T02:21:51;102344.23;;;6.19;59.20
70521;BME280;58442;52.716;23.560;2023-05-12T02:23:52;102349.92;;;6.18;59.35
70521;BME280;58442;52.716;23.560;2023-05-12T02:25:56;102353.67;;;6.17;59.41
70521;BME280;58442;52.716;23.560;2023-05-12T02:27:57;102352.08;;;6.16;59.43
70521;BME280;58442;52.716;23.560;2023-05-12T02:30:06;102353.16;;;6.15;59.46
70521;BME280;58442;52.716;23.560;2023-05-12T02:32:08;102355.33;;;6.13;59.57
70521;BME280;58442;52.716;23.560;2023-05-12T02:34:09;102352.35;;;6.14;59.54
70521;BME280;58442;52.716;23.560;2023-05-12T02:36:12;102349.13;;;6.12;59.53
70521;BME280;58442;52.716;23.560;2023-05-12T02:38:21;102351.28;;;6.10;59.68
70521;BME280;58442;52.716;23.560;2023-05-12T02:40:23;102355.06;;;6.09;59.86
70521;BME280;58442;52.716;23.560;2023-05-12T02:42:25;102356.44;;;6.07;59.83
70521;BME280;58442;52.716;23.560;2023-05-12T02:44:33;102354.28;;;6.03;59.96
70521;BME280;58442;52.716;23.560;2023-05-12T02:46:35;102355.36;;;6.02;60.01
70521;BME280;58442;52.716;23.560;2023-05-12T02:48:37;102358.61;;;6.05;60.22
70521;BME280;58442;52.716;23.560;2023-05-12T02:50:39;102356.98;;;6.03;60.19
70521;BME280;58442;52.716;23.560;2023-05-12T02:52:41;102356.17;;;6.03;60.25
70521;BME280;58442;52.716;23.560;2023-05-12T02:54:50;102364.02;;;6.05;60.27
70521;BME280;58442;52.716;23.560;2023-05-12T02:56:52;102356.98;;;6.03;60.32
70521;BME280;58442;52.716;23.560;2023-05-12T02:58:57;102355.36;;;6.02;60.34
70521;BME280;58442;52.716;23.560;2023-05-12T03:01:00;102361.56;;;6.03;60.36
70521;BME280;58442;52.716;23.560;2023-05-12T03:03:05;102363.20;;;6.04;60.35
70521;BME280;58442;52.716;23.560;2023-05-12T03:05:07;102368.85;;;6.02;60.46
70521;BME280;58442;52.716;23.560;2023-05-12T03:07:09;102356.98;;;6.03;60.45
70521;BME280;58442;52.716;23.560;2023-05-12T03:09:11;102368.32;;;6.06;60.42
70521;BME280;58442;52.716;23.560;2023-05-12T03:11:21;102362.93;;;6.06;60.43
70521;BME280;58442;52.716;23.560;2023-05-12T03:13:23;102364.54;;;6.07;60.49
70521;BME280;58442;52.716;23.560;2023-05-12T03:15:25;102368.04;;;6.07;60.47
70521;BME280;58442;52.716;23.560;2023-05-12T03:17:26;102367.23;;;6.07;60.51
70521;BME280;58442;52.716;23.560;2023-05-12T03:19:35;102367.76;;;6.09;60.51
70521;BME280;58442;52.716;23.560;2023-05-12T03:21:37;102370.98;;;6.11;60.57
70521;BME280;58442;52.716;23.560;2023-05-12T03:23:39;102362.08;;;6.10;60.61
70521;BME280;58442;52.716;23.560;2023-05-12T03:25:41;102366.41;;;6.11;60.56
70521;BME280;58442;52.716;23.560;2023-05-12T03:27:50;102374.75;;;6.15;60.56
70521;BME280;58442;52.716;23.560;2023-05-12T03:29:52;102368.27;;;6.16;60.57
70521;BME280;58442;52.716;23.560;2023-05-12T03:31:54;102374.21;;;6.18;60.56
70521;BME280;58442;52.716;23.560;2023-05-12T03:33:56;102374.73;;;6.20;60.51
70521;BME280;58442;52.716;23.560;2023-05-12T03:36:05;102371.75;;;6.21;60.50
70521;BME280;58442;52.716;23.560;2023-05-12T03:38:08;102377.66;;;6.23;60.55
70521;BME280;58442;52.716;23.560;2023-05-12T03:40:10;102375.23;;;6.27;60.50
70521;BME280;58442;52.716;23.560;2023-05-12T03:42:12;102380.88;;;6.30;60.43
70521;BME280;58442;52.716;23.560;2023-05-12T03:44:20;102386.02;;;6.32;60.45
70521;BME280;58442;52.716;23.560;2023-05-12T03:46:25;102385.45;;;6.35;60.54
70521;BME280;58442;52.716;23.560;2023-05-12T03:48:27;102391.37;;;6.37;60.52
70521;BME280;58442;52.716;23.560;2023-05-12T03:50:29;102386.53;;;6.39;60.47
70521;BME280;58442;52.716;23.560;2023-05-12T03:52:35;102390.55;;;6.42;60.46
70521;BME280;58442;52.716;23.560;2023-05-12T03:54:41;102387.85;;;6.42;60.54
70521;BME280;58442;52.716;23.560;2023-05-12T03:56:42;102385.67;;;6.44;60.59
70521;BME280;58442;52.716;23.560;2023-05-12T03:58:44;102386.48;;;6.44;60.56
70521;BME280;58442;52.716;23.560;2023-05-12T04:00:51;102394.58;;;6.44;60.60
70521;BME280;58442;52.716;23.560;2023-05-12T04:02:52;102397.84;;;6.46;60.73
70521;BME280;58442;52.716;23.560;2023-05-12T04:04:54;102397.03;;;6.46;60.74
70521;BME280;58442;52.716;23.560;2023-05-12T04:06:56;102394.84;;;6.48;60.74
70521;BME280;58442;52.716;23.560;2023-05-12T04:09:05;102400.77;;;6.50;60.80
70521;BME280;58442;52.716;23.560;2023-05-12T04:11:07;102394.02;;;6.52;60.80
70521;BME280;58442;52.716;23.560;2023-05-12T04:13:10;102398.33;;;6.53;60.82
70521;BME280;58442;52.716;23.560;2023-05-12T04:15:13;102396.66;;;6.57;60.79
70521;BME280;58442;52.716;23.560;2023-05-12T04:17:20;102398.28;;;6.58;60.78
70521;BME280;58442;52.716;23.560;2023-05-12T04:19:22;102397.22;;;6.60;60.82
70521;BME280;58442;52.716;23.560;2023-05-12T04:21:24;102398.84;;;6.61;60.86
70521;BME280;58442;52.716;23.560;2023-05-12T04:23:26;102397.74;;;6.62;60.89
70521;BME280;58442;52.716;23.560;2023-05-12T04:25:38;102394.76;;;6.63;61.00
70521;BME280;58442;52.716;23.560;2023-05-12T04:27:41;102402.56;;;6.65;61.16
70521;BME280;58442;52.716;23.560;2023-05-12T04:29:43;102396.62;;;6.68;61.18
70521;BME280;58442;52.716;23.560;2023-05-12T04:31:45;102403.34;;;6.70;61.23
70521;BME280;58442;52.716;23.560;2023-05-12T04:33:50;102400.63;;;6.75;61.33
70521;BME280;58442;52.716;23.560;2023-05-12T04:35:55;102400.05;;;6.78;61.48
70521;BME280;58442;52.716;23.560;2023-05-12T04:37:57;102403.02;;;6.82;61.49
70521;BME280;58442;52.716;23.560;2023-05-12T04:40:02;102405.69;;;6.87;61.50
70521;BME280;58442;52.716;23.560;2023-05-12T04:42:05;102405.12;;;6.90;61.53
70521;BME280;58442;52.716;23.560;2023-05-12T04:44:07;102408.59;;;6.96;61.68
70521;BME280;58442;52.716;23.560;2023-05-12T04:46:10;102404.23;;;7.00;61.63
70521;BME280;58442;52.716;23.560;2023-05-12T04:48:12;102412.02;;;7.06;61.62
70521;BME280;58442;52.716;23.560;2023-05-12T04:50:20;102408.98;;;7.13;61.63
70521;BME280;58442;52.716;23.560;2023-05-12T04:52:22;102406.53;;;7.17;61.74
70521;BME280;58442;52.716;23.560;2023-05-12T04:54:24;102406.21;;;7.23;61.78
70521;BME280;58442;52.716;23.560;2023-05-12T04:56:26;102417.80;;;7.29;61.76
70521;BME280;58442;52.716;23.560;2023-05-12T04:58:35;102411.27;;;7.35;61.75
70521;BME280;58442;52.716;23.560;2023-05-12T05:00:37;102409.03;;;7.42;61.87
70521;BME280;58442;52.716;23.560;2023-05-12T05:02:38;102417.90;;;7.48;61.89
70521;BME280;58442;52.716;23.560;2023-05-12T05:04:42;102414.05;;;7.54;61.89
70521;BME280;58442;52.716;23.560;2023-05-12T05:06:50;102420.47;;;7.63;61.92
70521;BME280;58442;52.716;23.560;2023-05-12T05:08:51;102414.72;;;7.70;62.01
70521;BME280;58442;52.716;23.560;2023-05-12T05:10:55;102416.80;;;7.78;61.90
70521;BME280;58442;52.716;23.560;2023-05-12T05:12:57;102418.88;;;7.86;61.74
70521;BME280;58442;52.716;23.560;2023-05-12T05:15:05;102418.77;;;7.96;61.63
70521;BME280;58442;52.716;23.560;2023-05-12T05:17:11;102420.55;;;8.06;61.62
70521;BME280;58442;52.716;23.560;2023-05-12T05:19:14;102425.56;;;8.17;61.43
70521;BME280;58442;52.716;23.560;2023-05-12T05:21:16;102423.52;;;8.28;61.26
70521;BME280;58442;52.716;23.560;2023-05-12T05:23:20;102430.77;;;8.38;61.15
70521;BME280;58442;52.716;23.560;2023-05-12T05:25:21;102424.91;;;8.49;61.09
70521;BME280;58442;52.716;23.560;2023-05-12T05:27:23;102423.98;;;8.59;60.84
70521;BME280;58442;52.716;23.560;2023-05-12T05:29:25;102424.63;;;8.70;60.70
70521;BME280;58442;52.716;23.560;2023-05-12T05:31:35;102424.98;;;8.82;60.55
70521;BME280;58442;52.716;23.560;2023-05-12T05:33:37;102422.14;;;8.92;60.51
70521;BME280;58442;52.716;23.560;2023-05-12T05:35:39;102420.57;;;9.05;60.26
70521;BME280;58442;52.716;23.560;2023-05-12T05:37:40;102421.95;;;9.21;60.02
70521;BME280;58442;52.716;23.560;2023-05-12T05:39:50;102420.88;;;9.36;59.82
70521;BME280;58442;52.716;23.560;2023-05-12T05:41:51;102425.55;;;9.49;59.62
70521;BME280;58442;52.716;23.560;2023-05-12T05:43:53;102421.52;;;9.60;59.39
70521;BME280;58442;52.716;23.560;2023-05-12T05:45:54;102426.99;;;9.74;59.20
70521;BME280;58442;52.716;23.560;2023-05-12T05:48:05;102419.96;;;9.87;58.93
70521;BME280;58442;52.716;23.560;2023-05-12T05:50:07;102428.34;;;10.04;58.72
70521;BME280;58442;52.716;23.560;2023-05-12T05:52:09;102426.10;;;10.20;58.55
70521;BME280;58442;52.716;23.560;2023-05-12T05:54:11;102419.88;;;10.33;58.36
70521;BME280;58442;52.716;23.560;2023-05-12T05:56:19;102410.11;;;10.46;58.24
70521;BME280;58442;52.716;23.560;2023-05-12T05:58:23;102420.96;;;10.60;57.95
70521;BME280;58442;52.716;23.560;2023-05-12T06:00:25;102424.93;;;10.76;57.62
70521;BME280;58442;52.716;23.560;2023-05-12T06:02:27;102426.80;;;10.89;57.33
70521;BME280;58442;52.716;23.560;2023-05-12T06:04:34;102428.06;;;11.06;57.04
70521;BME280;58442;52.716;23.560;2023-05-12T06:06:36;102426.09;;;11.20;56.53
70521;BME280;58442;52.716;23.560;2023-05-12T06:08:38;102429.70;;;11.38;56.13
70521;BME280;58442;52.716;23.560;2023-05-12T06:10:40;102423.06;;;11.53;55.81
70521;BME280;58442;52.716;23.560;2023-05-12T06:12:49;102422.36;;;11.69;55.39
70521;BME280;58442;52.716;23.560;2023-05-12T06:14:51;102426.30;;;11.86;55.19
70521;BME280;58442;52.716;23.560;2023-05-12T06:16:53;102425.91;;;12.01;54.66
70521;BME280;58442;52.716;23.560;2023-05-12T06:18:55;102422.89;;;12.20;54.43
70521;BME280;58442;52.716;23.560;2023-05-12T06:21:04;102424.55;;;12.38;53.99
70521;BME280;58442;52.716;23.560;2023-05-12T06:23:06;102422.34;;;12.57;53.41
70521;BME280;58442;52.716;23.560;2023-05-12T06:25:08;102417.38;;;12.77;53.08
70521;BME280;58442;52.716;23.560;2023-05-12T06:27:10;102425.72;;;12.98;52.59
70521;BME280;58442;52.716;23.560;2023-05-12T06:29:19;102426.16;;;13.17;52.29
70521;BME280;58442;52.716;23.560;2023-05-12T06:31:21;102422.31;;;13.35;51.83
70521;BME280;58442;52.716;23.560;2023-05-12T06:33:23;102430.15;;;13.54;51.48
70521;BME280;58442;52.716;23.560;2023-05-12T06:35:25;102433.95;;;13.71;51.21
70521;BME280;58442;52.716;23.560;2023-05-12T06:37:34;102424.70;;;13.92;50.78
70521;BME280;58442;52.716;23.560;2023-05-12T06:39:36;102425.43;;;14.10;50.43
70521;BME280;58442;52.716;23.560;2023-05-12T06:41:37;102422.12;;;14.26;49.79
70521;BME280;58442;52.716;23.560;2023-05-12T06:43:39;102420.44;;;14.42;49.45
70521;BME280;58442;52.716;23.560;2023-05-12T06:45:49;102426.13;;;14.58;49.16
70521;BME280;58442;52.716;23.560;2023-05-12T06:47:51;102429.06;;;14.73;48.74
70521;BME280;58442;52.716;23.560;2023-05-12T06:49:53;102412.85;;;14.89;48.43
70521;BME280;58442;52.716;23.560;2023-05-12T06:51:54;102427.63;;;15.09;48.03
70521;BME280;58442;52.716;23.560;2023-05-12T06:54:04;102423.14;;;15.25;47.74
70521;BME280;58442;52.716;23.560;2023-05-12T06:56:06;102419.41;;;15.42;47.45
70521;BME280;58442;52.716;23.560;2023-05-12T06:58:11;102422.77;;;15.60;47.28
70521;BME280;58442;52.716;23.560;2023-05-12T07:00:13;102425.56;;;15.72;46.78
70521;BME280;58442;52.716;23.560;2023-05-12T07:02:18;102418.25;;;15.89;46.44
70521;BME280;58442;52.716;23.560;2023-05-12T07:04:20;102425.93;;;16.07;45.86
70521;BME280;58442;52.716;23.560;2023-05-12T07:06:22;102418.93;;;16.22;45.54
70521;BME280;58442;52.716;23.560;2023-05-12T07:08:27;102415.92;;;16.39;45.13
70521;BME280;58442;52.716;23.560;2023-05-12T07:10:33;102418.77;;;16.55;44.73
70521;BME280;58442;52.716;23.560;2023-05-12T07:12:35;102426.30;;;16.71;44.33
70521;BME280;58442;52.716;23.560;2023-05-12T07:14:38;102421.57;;;16.83;43.97
70521;BME280;58442;52.716;23.560;2023-05-12T07:16:41;102423.57;;;16.99;43.52
70521;BME280;58442;52.716;23.560;2023-05-12T07:18:48;102415.48;;;17.18;43.02
70521;BME280;58442;52.716;23.560;2023-05-12T07:20:49;102419.84;;;17.35;42.47
70521;BME280;58442;52.716;23.560;2023-05-12T07:22:51;102419.88;;;17.50;42.17
70521;BME280;58442;52.716;23.560;2023-05-12T07:24:54;102422.98;;;17.65;41.79
70521;BME280;58442;52.716;23.560;2023-05-12T07:27:03;102425.77;;;17.81;41.35
70521;BME280;58442;52.716;23.560;2023-05-12T07:29:06;102421.05;;;17.97;40.82
70521;BME280;58442;52.716;23.560;2023-05-12T07:31:13;102418.71;;;18.15;40.35
70521;BME280;58442;52.716;23.560;2023-05-12T07:33:15;102422.95;;;18.28;39.90
70521;BME280;58442;52.716;23.560;2023-05-12T07:35:18;102421.59;;;18.38;39.78
70521;BME280;58442;52.716;23.560;2023-05-12T07:37:19;102413.94;;;18.47;39.45
70521;BME280;58442;52.716;23.560;2023-05-12T07:39:21;102417.71;;;18.58;38.98
70521;BME280;58442;52.716;23.560;2023-05-12T07:41:23;102418.40;;;18.71;38.82
70521;BME280;58442;52.716;23.560;2023-05-12T07:43:33;102413.91;;;18.82;38.77
70521;BME280;58442;52.716;23.560;2023-05-12T07:45:35;102418.84;;;18.92;37.76
70521;BME280;58442;52.716;23.560;2023-05-12T07:47:37;102412.67;;;18.99;37.79
70521;BME280;58442;52.716;23.560;2023-05-12T07:49:38;102414.39;;;19.07;37.54
70521;BME280;58442;52.716;23.560;2023-05-12T07:51:47;102411.85;;;19.18;37.59
70521;BME280;58442;52.716;23.560;2023-05-12T07:53:49;102408.48;;;19.28;37.04
70521;BME280;58442;52.716;23.560;2023-05-12T07:55:50;102410.64;;;19.38;36.86
70521;BME280;58442;52.716;23.560;2023-05-12T07:57:52;102399.45;;;19.50;36.54
70521;BME280;58442;52.716;23.560;2023-05-12T08:00:02;102404.78;;;19.62;36.26
70521;BME280;58442;52.716;23.560;2023-05-12T08:02:05;102416.39;;;19.72;36.07
70521;BME280;58442;52.716;23.560;2023-05-12T08:04:08;102409.05;;;19.83;35.77
70521;BME280;58442;52.716;23.560;2023-05-12T08:06:11;102411.22;;;19.93;35.59
70521;BME280;58442;52.716;23.560;2023-05-12T08:08:16;102411.01;;;20.05;35.52
70521;BME280;58442;52.716;23.560;2023-05-12T08:10:18;102400.87;;;20.13;34.84
70521;BME280;58442;52.716;23.560;2023-05-12T08:12:20;102404.63;;;20.28;34.93
70521;BME280;58442;52.716;23.560;2023-05-12T08:14:24;102392.18;;;20.41;34.56
70521;BME280;58442;52.716;23.560;2023-05-12T08:16:32;102401.86;;;20.54;34.47
70521;BME280;58442;52.716;23.560;2023-05-12T08:18:33;102402.77;;;20.65;34.12
70521;BME280;58442;52.716;23.560;2023-05-12T08:20:35;102406.47;;;20.76;33.97
70521;BME280;58442;52.716;23.560;2023-05-12T08:22:37;102401.44;;;20.86;33.69
70521;BME280;58442;52.716;23.560;2023-05-12T08:24:46;102407.81;;;20.90;33.57
70521;BME280;58442;52.716;23.560;2023-05-12T08:26:48;102398.86;;;21.00;33.25
70521;BME280;58442;52.716;23.560;2023-05-12T08:28:50;102395.80;;;21.12;33.24
70521;BME280;58442;52.716;23.560;2023-05-12T08:30:53;102402.66;;;21.25;33.11
70521;BME280;58442;52.716;23.560;2023-05-12T08:33:02;102402.02;;;21.36;32.92
70521;BME280;58442;52.716;23.560;2023-05-12T08:35:04;102391.01;;;21.43;32.72
70521;BME280;58442;52.716;23.560;2023-05-12T08:37:07;102400.18;;;21.54;32.50
70521;BME280;58442;52.716;23.560;2023-05-12T08:39:08;102391.20;;;21.68;32.24
70521;BME280;58442;52.716;23.560;2023-05-12T08:41:28;102392.48;;;21.77;32.05
70521;BME280;58442;52.716;23.560;2023-05-12T08:43:42;102396.88;;;21.85;31.78
70521;BME280;58442;52.716;23.560;2023-05-12T08:45:44;102397.34;;;21.95;31.71
70521;BME280;58442;52.716;23.560;2023-05-12T08:47:49;102395.80;;;22.01;31.47
70521;BME280;58442;52.716;23.560;2023-05-12T08:49:58;102388.72;;;22.07;31.28
70521;BME280;58442;52.716;23.560;2023-05-12T08:52:01;102386.06;;;22.18;31.17
70521;BME280;58442;52.716;23.560;2023-05-12T08:54:14;102400.34;;;22.27;31.05
70521;BME280;58442;52.716;23.560;2023-05-12T08:56:20;102384.55;;;22.34;30.96
70521;BME280;58442;52.716;23.560;2023-05-12T08:58:23;102386.97;;;22.43;30.77
70521;BME280;58442;52.716;23.560;2023-05-12T09:00:28;102375.13;;;22.50;30.72
70521;BME280;58442;52.716;23.560;2023-05-12T09:02:32;102383.09;;;22.58;30.73
70521;BME280;58442;52.716;23.560;2023-05-12T09:04:34;102381.54;;;22.68;30.58
70521;BME280;58442;52.716;23.560;2023-05-12T09:06:39;102392.66;;;22.82;30.39
70521;BME280;58442;52.716;23.560;2023-05-12T09:08:42;102381.66;;;22.93;30.20
70521;BME280;58442;52.716;23.560;2023-05-12T09:10:44;102381.27;;;23.02;30.00
70521;BME280;58442;52.716;23.560;2023-05-12T09:12:49;102380.89;;;23.07;29.63
70521;BME280;58442;52.716;23.560;2023-05-12T09:15:04;102369.40;;;23.08;29.68
70521;BME280;58442;52.716;23.560;2023-05-12T09:17:08;102380.89;;;23.17;29.43
70521;BME280;58442;52.716;23.560;2023-05-12T09:19:12;102375.73;;;23.09;29.72
70521;BME280;58442;52.716;23.560;2023-05-12T09:21:19;102381.67;;;23.00;29.78
70521;BME280;58442;52.716;23.560;2023-05-12T09:23:22;102377.70;;;23.05;29.58
70521;BME280;58442;52.716;23.560;2023-05-12T09:25:24;102380.48;;;23.12;29.01
70521;BME280;58442;52.716;23.560;2023-05-12T09:27:27;102384.02;;;22.98;29.54
70521;BME280;58442;52.716;23.560;2023-05-12T09:29:34;102368.97;;;22.96;29.41
70521;BME280;58442;52.716;23.560;2023-05-12T09:31:36;102376.88;;;22.86;29.59
70521;BME280;58442;52.716;23.560;2023-05-12T09:33:38;102370.93;;;22.91;29.43
70521;BME280;58442;52.716;23.560;2023-05-12T09:35:44;102381.66;;;23.04;29.18
70521;BME280;58442;52.716;23.560;2023-05-12T09:37:49;102371.78;;;23.17;29.14
70521;BME280;58442;52.716;23.560;2023-05-12T09:40:02;102358.71;;;23.25;29.07
70521;BME280;58442;52.716;23.560;2023-05-12T09:42:10;102372.59;;;23.35;28.89
70521;BME280;58442;52.716;23.560;2023-05-12T09:44:14;102372.20;;;23.47;28.72
70521;BME280;58442;52.716;23.560;2023-05-12T09:46:19;102368.68;;;23.61;28.54
70521;BME280;58442;52.716;23.560;2023-05-12T09:48:30;102370.22;;;23.73;28.39
70521;BME280;58442;52.716;23.560;2023-05-12T09:50:33;102363.48;;;23.74;28.05
70521;BME280;58442;52.716;23.560;2023-05-12T09:52:38;102361.48;;;23.57;28.30
70521;BME280;58442;52.716;23.560;2023-05-12T09:54:41;102353.98;;;23.64;28.17
70521;BME280;58442;52.716;23.560;2023-05-12T09:56:44;102349.99;;;23.83;28.03
70521;BME280;58442;52.716;23.560;2023-05-12T09:58:48;102340.05;;;23.93;28.04
70521;BME280;58442;52.716;23.560;2023-05-12T10:00:52;102343.20;;;24.09;27.77
70521;BME280;58442;52.716;23.560;2023-05-12T10:02:54;102347.59;;;23.96;28.04
70521;BME280;58442;52.716;23.560;2023-05-12T10:05:02;102344.85;;;23.71;28.40
70521;BME280;58442;52.716;23.560;2023-05-12T10:07:12;102349.18;;;23.86;28.20
70521;BME280;58442;52.716;23.560;2023-05-12T10:11:28;102330.09;;;24.06;27.82
70521;BME280;58442;52.716;23.560;2023-05-12T10:13:32;102333.23;;;24.15;27.62
70521;BME280;58442;52.716;23.560;2023-05-12T10:15:41;102332.41;;;24.22;27.51
70521;BME280;58442;52.716;23.560;2023-05-12T10:17:45;102328.84;;;24.25;27.37
70521;BME280;58442;52.716;23.560;2023-05-12T10:19:48;102328.53;;;23.98;27.59
70521;BME280;58442;52.716;23.560;2023-05-12T10:21:50;102339.30;;;23.71;27.95
70521;BME280;58442;52.716;23.560;2023-05-12T10:23:55;102332.55;;;23.76;27.85
70521;BME280;58442;52.716;23.560;2023-05-12T10:25:58;102326.55;;;23.88;27.59
70521;BME280;58442;52.716;23.560;2023-05-12T10:28:03;102322.20;;;23.97;27.46
70521;BME280;58442;52.716;23.560;2023-05-12T10:30:07;102307.87;;;24.10;27.35
70521;BME280;58442;52.716;23.560;2023-05-12T10:32:10;102305.41;;;24.26;27.30
70521;BME280;58442;52.716;23.560;2023-05-12T10:34:16;102306.55;;;24.43;27.14
70521;BME280;58442;52.716;23.560;2023-05-12T10:36:22;102301.69;;;24.61;26.95
70521;BME280;58442;52.716;23.560;2023-05-12T10:38:24;102310.73;;;24.76;26.89
70521;BME280;58442;52.716;23.560;2023-05-12T10:40:26;102303.22;;;24.73;27.09
70521;BME280;58442;52.716;23.560;2023-05-12T10:42:51;102301.67;;;24.65;27.09
70521;BME280;58442;52.716;23.560;2023-05-12T10:44:49;102307.95;;;24.76;26.91
70521;BME280;58442;52.716;23.560;2023-05-12T10:46:57;102298.81;;;24.79;26.81